Time;durP1;ratioP1;P1;durP2;ratioP2;P2;SDS_P1;SDS_P2;PMS_P1;PMS_P2;Temp;Humidity;BMP_temperature;BMP_pressure;BME280_temperature;BME280_humidity;BME280_pressure;Samples;Min_cycle;Max_cycle;Signal;HPM_P1;HPM_P2
2021/04/14 00:00:28;;;;;;;;;;;17.20;58.50;;;;;;4968950;28;19997;-88
2021/04/14 00:02:54;;;;;;;;;;;17.10;58.50;;;;;;4971942;28;19915;-89
2021/04/14 00:05:21;;;;;;;;;;;17.20;58.50;;;;;;4952953;28;19918;-90
2021/04/14 00:07:47;;;;;;;;;;;17.20;58.50;;;;;;5023279;28;19957;-88
2021/04/14 00:10:13;;;;;;;;;;;17.20;58.50;;;;;;4950187;28;20329;-89
2021/04/14 00:12:39;;;;;;;;;;;17.10;58.50;;;;;;4966945;28;20295;-89
2021/04/14 00:15:07;;;;;;;;;;;17.20;58.50;;;;;;4983825;28;19914;-88
2021/04/14 00:17:33;;;;;;;;;;;17.20;58.50;;;;;;4970840;28;19914;-87
2021/04/14 00:19:58;;;;;;;;;;;17.10;58.60;;;;;;4970136;28;20009;-89
2021/04/14 00:22:24;;;;;;;;;;;17.10;58.60;;;;;;4952420;28;20295;-89
2021/04/14 00:24:49;;;;;;;;;;;17.10;58.50;;;;;;4953759;28;20068;-88
2021/04/14 00:27:15;;;;;;;;;;;17.10;58.50;;;;;;4972077;28;19920;-89
2021/04/14 00:29:40;;;;;;;;;;;17.10;58.50;;;;;;4964743;28;19976;-88
2021/04/14 00:32:06;;;;;;;;;;;17.10;58.50;;;;;;4951835;28;19922;-88
2021/04/14 00:34:31;;;;;;;;;;;17.10;58.60;;;;;;4970047;28;20325;-88
2021/04/14 00:36:57;;;;;;;;;;;17.10;58.60;;;;;;4968899;28;20021;-89
2021/04/14 00:39:25;;;;;;;;;;;17.10;58.50;;;;;;4956423;28;19997;-89
2021/04/14 00:41:51;;;;;;;;;;;17.20;58.50;;;;;;4970037;28;19921;-89
2021/04/14 00:44:17;;;;;;;;;;;17.10;58.50;;;;;;4971120;28;19914;-88
2021/04/14 00:46:42;;;;;;;;;;;17.10;58.50;;;;;;4970214;28;20365;-87
2021/04/14 00:49:08;;;;;;;;;;;17.10;58.50;;;;;;4968052;28;19926;-88
2021/04/14 00:51:34;;;;;;;;;;;17.10;58.60;;;;;;4971693;28;19926;-87
2021/04/14 00:54:00;;;;;;;;;;;17.10;58.50;;;;;;4954643;28;20267;-88
2021/04/14 00:56:25;;;;;;;;;;;17.10;58.60;;;;;;4958437;28;20161;-88
2021/04/14 00:58:51;;;;;;;;;;;17.10;58.60;;;;;;4986295;28;19920;-89
2021/04/14 01:01:16;;;;;;;;;;;17.10;58.50;;;;;;4955812;28;19925;-87
2021/04/14 01:03:42;;;;;;;;;;;17.10;58.50;;;;;;4973549;28;19914;-88
2021/04/14 01:06:12;;;;;;;;;;;17.10;58.50;;;;;;4966774;28;20373;-87
2021/04/14 01:08:38;;;;;;;;;;;17.10;58.50;;;;;;4966293;28;19963;-89
2021/04/14 01:11:04;;;;;;;;;;;17.10;58.50;;;;;;4992497;28;20013;-88
2021/04/14 01:13:30;;;;;;;;;;;17.10;58.50;;;;;;4973505;28;19928;-88
2021/04/14 01:15:56;;;;;;;;;;;17.10;58.50;;;;;;4973769;28;19918;-89
2021/04/14 01:18:24;;;;;;;;;;;17.10;58.50;;;;;;4972394;28;19960;-88
2021/04/14 01:20:50;;;;;;;;;;;17.00;58.60;;;;;;4956402;28;19914;-89
2021/04/14 01:23:17;;;;;;;;;;;17.00;58.60;;;;;;4954114;28;20024;-85
2021/04/14 01:25:42;;;;;;;;;;;17.00;58.50;;;;;;5009677;28;20378;-88
2021/04/14 01:28:16;;;;;;;;;;;17.10;58.50;;;;;;4977411;28;19918;-88
2021/04/14 01:30:41;;;;;;;;;;;17.00;58.50;;;;;;4972157;28;19937;-88
2021/04/14 01:33:08;;;;;;;;;;;17.00;58.50;;;;;;5006209;28;19917;-88
2021/04/14 01:35:34;;;;;;;;;;;17.10;58.50;;;;;;4987133;28;20325;-88
2021/04/14 01:37:59;;;;;;;;;;;17.00;58.50;;;;;;4971756;28;19929;-88
2021/04/14 01:40:26;;;;;;;;;;;17.00;58.60;;;;;;4971042;28;19919;-88
2021/04/14 01:42:52;;;;;;;;;;;17.00;58.50;;;;;;5039104;28;20355;-86
2021/04/14 01:45:22;;;;;;;;;;;17.00;58.50;;;;;;4985995;28;19957;-86
2021/04/14 01:47:48;;;;;;;;;;;17.00;58.50;;;;;;4977264;28;19918;-88
2021/04/14 01:50:13;;;;;;;;;;;17.00;58.50;;;;;;4971926;28;19936;-88
2021/04/14 01:52:39;;;;;;;;;;;17.00;58.60;;;;;;4985179;28;19914;-89
2021/04/14 01:55:05;;;;;;;;;;;17.00;58.50;;;;;;4970177;28;20013;-89
2021/04/14 01:57:31;;;;;;;;;;;17.00;58.50;;;;;;4969890;28;19915;-89
2021/04/14 01:59:57;;;;;;;;;;;17.00;58.60;;;;;;4960216;28;19921;-88
2021/04/14 02:02:22;;;;;;;;;;;17.10;58.50;;;;;;4978135;28;19918;-87
2021/04/14 02:04:49;;;;;;;;;;;17.00;58.50;;;;;;4986379;28;19922;-88
2021/04/14 02:07:14;;;;;;;;;;;17.00;58.50;;;;;;4989549;28;20005;-88
2021/04/14 02:09:40;;;;;;;;;;;17.00;58.50;;;;;;4972303;28;20006;-88
2021/04/14 02:12:06;;;;;;;;;;;17.00;58.50;;;;;;4970535;28;20364;-88
2021/04/14 02:14:32;;;;;;;;;;;17.00;58.50;;;;;;4972885;28;19944;-87
2021/04/14 02:16:57;;;;;;;;;;;17.00;58.50;;;;;;4973457;28;20287;-89
2021/04/14 02:19:23;;;;;;;;;;;17.00;58.50;;;;;;4969101;28;19914;-88
2021/04/14 02:21:48;;;;;;;;;;;17.00;58.50;;;;;;4972369;28;20256;-88
2021/04/14 02:24:14;;;;;;;;;;;17.00;58.50;;;;;;4970108;28;19914;-88
2021/04/14 02:26:39;;;;;;;;;;;17.00;58.50;;;;;;4953907;28;19918;-89
2021/04/14 02:29:05;;;;;;;;;;;17.00;58.50;;;;;;4972050;28;20304;-86
2021/04/14 02:31:31;;;;;;;;;;;17.00;58.50;;;;;;4970501;28;19922;-88
2021/04/14 02:34:07;;;;;;;;;;;17.00;58.50;;;;;;4968144;28;19918;-89
2021/04/14 02:36:33;;;;;;;;;;;17.00;58.50;;;;;;4972830;28;19914;-86
2021/04/14 02:38:58;;;;;;;;;;;17.00;58.50;;;;;;4971492;28;19919;-87
2021/04/14 02:41:24;;;;;;;;;;;16.90;58.50;;;;;;4971056;28;19914;-86
2021/04/14 02:43:50;;;;;;;;;;;17.00;58.50;;;;;;4969298;28;19912;-88
2021/04/14 02:46:16;;;;;;;;;;;17.00;58.50;;;;;;4970897;28;20422;-87
2021/04/14 02:48:41;;;;;;;;;;;17.00;58.50;;;;;;4971498;28;20001;-88
2021/04/14 02:51:07;;;;;;;;;;;17.00;58.50;;;;;;4955533;28;19927;-88
2021/04/14 02:53:33;;;;;;;;;;;17.00;58.50;;;;;;4981944;28;19959;-87
2021/04/14 02:55:58;;;;;;;;;;;17.00;58.50;;;;;;4987890;28;19914;-88
2021/04/14 02:58:24;;;;;;;;;;;16.90;58.50;;;;;;4956077;28;19925;-88
2021/04/14 03:00:50;;;;;;;;;;;17.00;58.40;;;;;;4959345;28;19914;-88
2021/04/14 03:03:15;;;;;;;;;;;16.90;58.40;;;;;;4970502;28;19921;-88
2021/04/14 03:05:41;;;;;;;;;;;17.00;58.40;;;;;;4975978;28;19944;-88
2021/04/14 03:08:06;;;;;;;;;;;17.00;58.40;;;;;;4971510;28;20009;-87
2021/04/14 03:10:32;;;;;;;;;;;17.00;58.40;;;;;;4963808;28;19928;-86
2021/04/14 03:12:58;;;;;;;;;;;16.90;58.40;;;;;;4967724;28;19918;-88
2021/04/14 03:15:25;;;;;;;;;;;16.90;58.40;;;;;;4952554;28;20428;-88
2021/04/14 03:17:51;;;;;;;;;;;16.90;58.40;;;;;;4970369;28;20003;-87
2021/04/14 03:20:16;;;;;;;;;;;16.90;58.40;;;;;;4969808;28;19967;-88
2021/04/14 03:22:42;;;;;;;;;;;16.90;58.40;;;;;;4951162;28;19914;-87
2021/04/14 03:25:08;;;;;;;;;;;16.90;58.40;;;;;;4966554;28;19952;-88
2021/04/14 03:27:34;;;;;;;;;;;16.90;58.40;;;;;;4976302;28;19914;-86
2021/04/14 03:29:59;;;;;;;;;;;16.90;58.40;;;;;;4953947;28;19954;-89
2021/04/14 03:32:25;;;;;;;;;;;16.90;58.40;;;;;;4968457;28;19933;-88
2021/04/14 03:34:50;;;;;;;;;;;16.90;58.40;;;;;;4982627;28;19922;-88
2021/04/14 03:37:16;;;;;;;;;;;16.90;58.40;;;;;;4969114;28;20000;-87
2021/04/14 03:39:41;;;;;;;;;;;16.90;58.30;;;;;;4967292;28;19914;-88
2021/04/14 03:42:07;;;;;;;;;;;16.90;58.30;;;;;;5003212;28;19917;-88
2021/04/14 03:44:35;;;;;;;;;;;16.90;58.30;;;;;;5000551;28;20260;-87
2021/04/14 03:47:01;;;;;;;;;;;16.90;58.30;;;;;;4976001;28;20363;-87
2021/04/14 03:49:27;;;;;;;;;;;16.90;58.30;;;;;;4970189;28;19925;-87
2021/04/14 03:51:52;;;;;;;;;;;16.90;58.30;;;;;;4966069;28;19922;-87
2021/04/14 03:54:19;;;;;;;;;;;16.90;58.30;;;;;;4970070;28;20344;-88
2021/04/14 03:56:45;;;;;;;;;;;16.90;58.30;;;;;;4969194;28;20393;-88
2021/04/14 03:59:10;;;;;;;;;;;16.90;58.30;;;;;;4969723;28;19922;-88
2021/04/14 04:01:36;;;;;;;;;;;16.90;58.30;;;;;;4981496;28;19922;-88
2021/04/14 04:04:02;;;;;;;;;;;16.90;58.30;;;;;;4968089;28;19918;-83
2021/04/14 04:06:27;;;;;;;;;;;16.90;58.30;;;;;;4952591;28;20018;-90
2021/04/14 04:08:53;;;;;;;;;;;16.90;58.30;;;;;;4970845;28;20440;-87
2021/04/14 04:11:20;;;;;;;;;;;16.90;58.30;;;;;;4985542;28;20330;-86
2021/04/14 04:13:46;;;;;;;;;;;16.90;58.30;;;;;;4966663;28;19914;-87
2021/04/14 04:16:12;;;;;;;;;;;16.90;58.40;;;;;;4967095;28;20363;-87
2021/04/14 04:18:37;;;;;;;;;;;16.90;58.40;;;;;;4969435;28;19968;-87
2021/04/14 04:21:04;;;;;;;;;;;16.90;58.40;;;;;;4970389;28;19921;-87
2021/04/14 04:23:30;;;;;;;;;;;16.90;58.40;;;;;;4966888;28;19960;-87
2021/04/14 04:25:55;;;;;;;;;;;16.90;58.40;;;;;;4968474;28;19922;-88
2021/04/14 04:28:21;;;;;;;;;;;16.90;58.40;;;;;;4973107;28;19914;-87
2021/04/14 04:30:51;;;;;;;;;;;16.90;58.40;;;;;;4971703;28;19929;-86
2021/04/14 04:33:17;;;;;;;;;;;16.90;58.40;;;;;;4953426;28;19980;-87
2021/04/14 04:35:43;;;;;;;;;;;16.90;58.40;;;;;;4972288;28;19918;-87
2021/04/14 04:38:08;;;;;;;;;;;16.90;58.40;;;;;;4977930;28;19970;-87
2021/04/14 04:40:34;;;;;;;;;;;16.90;58.40;;;;;;4957496;28;19914;-87
2021/04/14 04:43:00;;;;;;;;;;;16.90;58.40;;;;;;4956098;28;19918;-87
2021/04/14 04:45:28;;;;;;;;;;;16.90;58.40;;;;;;4970759;28;19922;-86
2021/04/14 04:47:54;;;;;;;;;;;16.90;58.40;;;;;;4972211;28;19937;-87
2021/04/14 04:50:29;;;;;;;;;;;16.90;58.40;;;;;;4954258;28;19915;-87
2021/04/14 04:52:55;;;;;;;;;;;16.90;58.40;;;;;;4974302;28;19914;-87
2021/04/14 04:55:21;;;;;;;;;;;16.90;58.40;;;;;;4965256;28;20139;-87
2021/04/14 04:57:47;;;;;;;;;;;16.90;58.40;;;;;;4973340;28;19918;-87
2021/04/14 05:00:13;;;;;;;;;;;16.90;58.40;;;;;;5005765;28;19921;-87
2021/04/14 05:02:39;;;;;;;;;;;16.90;58.40;;;;;;4976105;28;19914;-87
2021/04/14 05:05:06;;;;;;;;;;;16.90;58.40;;;;;;4989414;28;19921;-87
2021/04/14 05:07:31;;;;;;;;;;;16.90;58.40;;;;;;4973056;28;19964;-86
2021/04/14 05:10:03;;;;;;;;;;;16.90;58.40;;;;;;4973104;28;19965;-87
2021/04/14 05:12:28;;;;;;;;;;;16.90;58.30;;;;;;4967578;28;19923;-87
2021/04/14 05:14:54;;;;;;;;;;;16.90;58.30;;;;;;4972870;28;19964;-88
2021/04/14 05:17:19;;;;;;;;;;;16.90;58.30;;;;;;4974582;28;19974;-86
2021/04/14 05:19:45;;;;;;;;;;;16.90;58.30;;;;;;4973237;28;19924;-88
2021/04/14 05:22:11;;;;;;;;;;;17.00;58.30;;;;;;4975256;28;19959;-87
2021/04/14 05:24:39;;;;;;;;;;;16.90;58.30;;;;;;4974476;28;19918;-87
2021/04/14 05:27:08;;;;;;;;;;;16.90;58.20;;;;;;4954011;28;19914;-87
2021/04/14 05:29:34;;;;;;;;;;;16.90;58.20;;;;;;4970806;28;20885;-86
2021/04/14 05:32:00;;;;;;;;;;;17.00;58.20;;;;;;4954271;28;20019;-87
2021/04/14 05:34:30;;;;;;;;;;;16.90;58.20;;;;;;4952916;28;19922;-86
2021/04/14 05:36:55;;;;;;;;;;;17.00;58.20;;;;;;4967824;28;19918;-88
2021/04/14 05:39:26;;;;;;;;;;;16.90;58.20;;;;;;4975871;28;19921;-87
2021/04/14 05:41:51;;;;;;;;;;;16.90;58.20;;;;;;4974289;28;20617;-87
2021/04/14 05:44:22;;;;;;;;;;;17.00;58.20;;;;;;4974646;28;19961;-86
2021/04/14 05:46:53;;;;;;;;;;;17.00;58.10;;;;;;4976473;28;19918;-85
2021/04/14 05:49:18;;;;;;;;;;;17.00;58.10;;;;;;5003118;28;19920;-86
2021/04/14 05:51:44;;;;;;;;;;;17.00;58.10;;;;;;4975332;28;20291;-86
2021/04/14 05:54:10;;;;;;;;;;;17.00;58.10;;;;;;5037653;28;19992;-87
2021/04/14 05:56:35;;;;;;;;;;;16.90;58.10;;;;;;4967014;28;19921;-86
2021/04/14 05:59:01;;;;;;;;;;;17.00;58.10;;;;;;4986721;28;19914;-86
2021/04/14 06:01:29;;;;;;;;;;;17.00;58.10;;;;;;4986966;28;19960;-86
2021/04/14 06:03:55;;;;;;;;;;;17.00;58.10;;;;;;4967909;28;20354;-87
2021/04/14 06:06:21;;;;;;;;;;;17.00;58.10;;;;;;4954910;28;20009;-86
2021/04/14 06:08:46;;;;;;;;;;;17.00;58.10;;;;;;4988021;28;19914;-87
2021/04/14 06:11:12;;;;;;;;;;;17.00;58.10;;;;;;4985702;28;20009;-87
2021/04/14 06:13:37;;;;;;;;;;;17.00;58.10;;;;;;4973478;28;19918;-86
2021/04/14 06:16:08;;;;;;;;;;;17.00;58.10;;;;;;4962670;28;19919;-86
2021/04/14 06:18:33;;;;;;;;;;;17.00;58.10;;;;;;4957246;28;19982;-86
2021/04/14 06:21:01;;;;;;;;;;;17.00;58.10;;;;;;4970075;28;20021;-87
2021/04/14 06:23:32;;;;;;;;;;;17.00;58.00;;;;;;4950014;28;19915;-87
2021/04/14 06:28:29;;;;;;;;;;;17.00;58.00;;;;;;4967300;28;20001;-87
2021/04/14 06:30:55;;;;;;;;;;;17.00;58.00;;;;;;4954523;28;19968;-86
2021/04/14 06:33:22;;;;;;;;;;;17.00;58.00;;;;;;4948243;28;19960;-86
2021/04/14 06:35:48;;;;;;;;;;;17.00;57.90;;;;;;4956565;28;19922;-86
2021/04/14 06:38:17;;;;;;;;;;;17.00;58.00;;;;;;4974023;28;20360;-87
2021/04/14 06:43:44;;;;;;;;;;;17.00;57.90;;;;;;4971052;28;19993;-87
2021/04/14 06:46:12;;;;;;;;;;;17.00;57.90;;;;;;4950892;28;19918;-87
2021/04/14 06:48:47;;;;;;;;;;;17.00;57.90;;;;;;4968254;28;19925;-87
2021/04/14 06:51:15;;;;;;;;;;;17.00;57.80;;;;;;4968411;28;19944;-86
2021/04/14 06:53:46;;;;;;;;;;;17.10;57.80;;;;;;4971551;28;20326;-86
2021/04/14 06:56:16;;;;;;;;;;;17.10;57.90;;;;;;4955056;28;21086;-86
2021/04/14 06:58:43;;;;;;;;;;;17.00;57.80;;;;;;4970123;28;19915;-87
2021/04/14 07:01:13;;;;;;;;;;;17.00;57.80;;;;;;4958559;28;20017;-87
2021/04/14 07:03:43;;;;;;;;;;;17.00;57.80;;;;;;4971181;28;19921;-86
2021/04/14 07:06:12;;;;;;;;;;;17.10;57.80;;;;;;4971896;28;20001;-86
2021/04/14 07:08:41;;;;;;;;;;;17.10;57.80;;;;;;4972384;28;20008;-87
2021/04/14 07:11:09;;;;;;;;;;;17.10;57.70;;;;;;4970259;28;19965;-87
2021/04/14 07:13:35;;;;;;;;;;;17.00;57.70;;;;;;4972291;28;19922;-87
2021/04/14 07:16:21;;;;;;;;;;;17.10;57.70;;;;;;4971814;28;19914;-86
2021/04/14 07:18:51;;;;;;;;;;;17.10;57.70;;;;;;4993647;28;20404;-86
2021/04/14 07:21:23;;;;;;;;;;;17.10;57.60;;;;;;4985354;28;19921;-86
2021/04/14 07:23:50;;;;;;;;;;;17.10;57.60;;;;;;4945334;28;19918;-86
2021/04/14 07:26:16;;;;;;;;;;;17.10;57.60;;;;;;4946079;28;19960;-85
2021/04/14 07:28:42;;;;;;;;;;;17.20;57.40;;;;;;4949319;28;20003;-90
2021/04/14 07:31:30;;;;;;;;;;;17.20;57.40;;;;;;4951667;28;19941;-84
2021/04/14 07:34:01;;;;;;;;;;;17.30;57.30;;;;;;4967946;28;19921;-85
2021/04/14 07:36:30;;;;;;;;;;;17.30;57.30;;;;;;4969300;28;19961;-83
2021/04/14 07:39:05;;;;;;;;;;;17.30;57.30;;;;;;4965523;28;19914;-85
2021/04/14 07:41:40;;;;;;;;;;;17.30;57.30;;;;;;4953724;28;19954;-85
2021/04/14 07:44:09;;;;;;;;;;;17.30;57.30;;;;;;4955189;28;19922;-83
2021/04/14 07:46:36;;;;;;;;;;;17.30;57.30;;;;;;4968107;28;19914;-85
2021/04/14 07:49:03;;;;;;;;;;;17.30;57.30;;;;;;4980361;28;19914;-84
2021/04/14 07:51:29;;;;;;;;;;;17.30;57.30;;;;;;4952699;28;19983;-87
2021/04/14 07:53:56;;;;;;;;;;;17.30;57.20;;;;;;4952957;28;19918;-90
2021/04/14 07:56:23;;;;;;;;;;;17.30;57.00;;;;;;4970558;28;19968;-88
2021/04/14 07:59:04;;;;;;;;;;;17.40;56.90;;;;;;5027867;28;19922;-88
2021/04/14 08:01:30;;;;;;;;;;;17.40;56.80;;;;;;4960860;28;19962;-89
2021/04/14 08:04:13;;;;;;;;;;;17.50;56.70;;;;;;4969708;28;19926;-92
2021/04/14 08:06:38;;;;;;;;;;;17.50;56.60;;;;;;4971988;28;19918;-81
2021/04/14 08:09:18;;;;;;;;;;;17.50;56.50;;;;;;4977051;28;19920;-84
2021/04/14 08:11:44;;;;;;;;;;;17.60;56.50;;;;;;4951258;28;20329;-82
2021/04/14 08:14:30;;;;;;;;;;;17.50;56.50;;;;;;4965715;28;19914;-82
2021/04/14 08:17:02;;;;;;;;;;;17.50;56.50;;;;;;4973961;28;19925;-82
2021/04/14 08:19:33;;;;;;;;;;;17.50;56.50;;;;;;4968486;28;19957;-82
2021/04/14 08:22:00;;;;;;;;;;;17.50;56.50;;;;;;4967940;28;20488;-83
2021/04/14 08:24:32;;;;;;;;;;;17.50;56.60;;;;;;4952921;28;19918;-83
2021/04/14 08:27:00;;;;;;;;;;;17.50;56.60;;;;;;4965067;28;19938;-82
2021/04/14 08:29:26;;;;;;;;;;;17.50;56.70;;;;;;4954857;28;20017;-82
2021/04/14 08:31:53;;;;;;;;;;;17.40;56.70;;;;;;4952409;28;19923;-83
2021/04/14 08:34:22;;;;;;;;;;;17.40;56.70;;;;;;4971263;28;19978;-82
2021/04/14 08:37:10;;;;;;;;;;;17.50;56.70;;;;;;4951769;28;19914;-82
2021/04/14 08:39:36;;;;;;;;;;;17.50;56.70;;;;;;4969248;28;19921;-82
2021/04/14 08:42:13;;;;;;;;;;;17.50;56.70;;;;;;4966633;28;20428;-82
2021/04/14 08:44:40;;;;;;;;;;;17.50;56.80;;;;;;4972889;28;20555;-83
2021/04/14 08:47:26;;;;;;;;;;;17.40;56.80;;;;;;4948664;28;19918;-83
2021/04/14 08:49:56;;;;;;;;;;;17.40;56.90;;;;;;4966141;28;19975;-82
2021/04/14 08:52:22;;;;;;;;;;;17.40;56.80;;;;;;4951383;28;19922;-83
2021/04/14 08:54:48;;;;;;;;;;;17.40;56.80;;;;;;4975886;28;19918;-83
2021/04/14 08:57:14;;;;;;;;;;;17.40;56.80;;;;;;5015342;28;20268;-82
2021/04/14 08:59:44;;;;;;;;;;;17.40;56.70;;;;;;4989420;28;19997;-82
2021/04/14 09:02:12;;;;;;;;;;;17.40;56.70;;;;;;4947343;28;20287;-82
2021/04/14 09:04:41;;;;;;;;;;;17.40;56.70;;;;;;4999539;28;19921;-82
2021/04/14 09:07:07;;;;;;;;;;;17.40;56.70;;;;;;4950742;28;20019;-81
2021/04/14 09:45:59;;;;;;;;;;;17.50;56.60;;;;;;4936298;23;19934;-80
2021/04/14 09:48:36;;;;;;;;;;;17.50;56.50;;;;;;4986141;28;19921;-80
2021/04/14 09:51:02;;;;;;;;;;;17.50;56.60;;;;;;4987403;28;20284;-81
2021/04/14 09:53:35;;;;;;;;;;;17.50;56.50;;;;;;4972405;28;20005;-82
2021/04/14 09:56:15;;;;;;;;;;;17.50;56.50;;;;;;4958303;28;19921;-82
2021/04/14 09:58:54;;;;;;;;;;;17.50;56.60;;;;;;4955283;28;19921;-81
2021/04/14 10:01:22;;;;;;;;;;;17.50;56.50;;;;;;4987154;28;20243;-81
2021/04/14 10:03:48;;;;;;;;;;;17.50;56.50;;;;;;4955186;28;20008;-82
2021/04/14 10:06:23;;;;;;;;;;;17.50;56.90;;;;;;4987149;28;19915;-78
2021/04/14 10:08:55;;;;;;;;;;;17.60;57.00;;;;;;4972436;28;19921;-78
2021/04/14 10:11:47;;;;;;;;;;;17.60;56.70;;;;;;4971452;28;21946;-81
2021/04/14 10:14:20;;;;;;;;;;;17.70;56.50;;;;;;4971778;28;19918;-81
2021/04/14 10:16:46;;;;;;;;;;;17.60;56.40;;;;;;4969706;28;19978;-80
2021/04/14 10:19:14;;;;;;;;;;;17.60;56.40;;;;;;4981238;28;20001;-80
2021/04/14 10:21:41;;;;;;;;;;;17.60;56.40;;;;;;4968199;28;19919;-81
2021/04/14 10:24:09;;;;;;;;;;;17.60;56.40;;;;;;4967091;28;19976;-80
2021/04/14 10:26:36;;;;;;;;;;;17.70;56.30;;;;;;4970538;28;19914;-80
2021/04/14 10:29:07;;;;;;;;;;;17.80;56.20;;;;;;4983015;28;20367;-81
2021/04/14 10:31:33;;;;;;;;;;;17.80;55.90;;;;;;4970746;28;19971;-78
2021/04/14 10:34:12;;;;;;;;;;;17.80;55.80;;;;;;4972385;28;19997;-81
2021/04/14 10:36:40;;;;;;;;;;;17.90;55.70;;;;;;4970535;28;19915;-81
2021/04/14 10:39:08;;;;;;;;;;;18.00;55.60;;;;;;4974327;28;19914;-79
2021/04/14 10:41:39;;;;;;;;;;;18.00;55.50;;;;;;4967069;28;19914;-80
2021/04/14 10:44:15;;;;;;;;;;;18.00;55.40;;;;;;4969142;28;20290;-81
2021/04/14 10:46:40;;;;;;;;;;;18.00;55.30;;;;;;4970156;28;19971;-80
2021/04/14 10:49:26;;;;;;;;;;;18.00;55.30;;;;;;4971569;28;19918;-80
2021/04/14 10:52:00;;;;;;;;;;;18.00;55.20;;;;;;4966640;28;19925;-81
2021/04/14 10:54:30;;;;;;;;;;;18.00;55.30;;;;;;4995156;28;19922;-80
2021/04/14 10:57:01;;;;;;;;;;;17.90;55.40;;;;;;4967564;28;19925;-80
2021/04/14 10:59:27;;;;;;;;;;;17.80;55.70;;;;;;5026242;28;19918;-80
2021/04/14 11:01:53;;;;;;;;;;;17.80;56.00;;;;;;4963048;28;20268;-79
2021/04/14 11:04:32;;;;;;;;;;;17.70;56.10;;;;;;4984776;28;19914;-79
2021/04/14 11:07:00;;;;;;;;;;;17.70;56.20;;;;;;4972993;28;19914;-81
2021/04/14 11:09:25;;;;;;;;;;;17.60;56.30;;;;;;4984428;28;20001;-79
2021/04/14 11:11:56;;;;;;;;;;;17.70;56.30;;;;;;4967990;28;20356;-89
2021/04/14 11:14:21;;;;;;;;;;;17.60;56.30;;;;;;4997352;28;19971;-91
2021/04/14 11:16:50;;;;;;;;;;;17.60;56.40;;;;;;4973257;28;19914;-90
2021/04/14 11:19:18;;;;;;;;;;;17.60;56.70;;;;;;5001623;28;19921;-91
2021/04/14 11:21:44;;;;;;;;;;;17.60;56.90;;;;;;4970881;28;19921;-88
2021/04/14 11:24:15;;;;;;;;;;;17.60;56.90;;;;;;4969962;28;19922;-88
2021/04/14 11:26:51;;;;;;;;;;;17.60;57.00;;;;;;4968288;28;19968;-87
2021/04/14 11:29:19;;;;;;;;;;;17.70;57.00;;;;;;4958986;28;20006;-90
2021/04/14 11:31:47;;;;;;;;;;;17.60;56.90;;;;;;4972162;28;19918;-85
2021/04/14 11:34:33;;;;;;;;;;;17.70;57.00;;;;;;4969404;28;19922;-86
2021/04/14 11:37:03;;;;;;;;;;;17.70;56.80;;;;;;4961291;28;19944;-87
2021/04/14 11:39:48;;;;;;;;;;;17.70;56.70;;;;;;4968743;28;20010;-87
2021/04/14 11:42:21;;;;;;;;;;;17.70;56.70;;;;;;4970831;28;19914;-86
2021/04/14 11:44:51;;;;;;;;;;;17.80;56.60;;;;;;4965181;28;19957;-87
2021/04/14 11:47:30;;;;;;;;;;;17.80;56.50;;;;;;4967468;28;20028;-81
2021/04/14 11:49:56;;;;;;;;;;;17.80;56.40;;;;;;4966045;28;19918;-87
2021/04/14 12:44:19;;;;;;;;;;;18.00;62.90;;;;;;4957923;28;19921;-83
2021/04/14 12:46:47;;;;;;;;;;;18.00;62.80;;;;;;5004256;28;19922;-87
2021/04/14 12:49:15;;;;;;;;;;;18.00;62.80;;;;;;4974450;28;19945;-86
2021/04/14 12:51:47;;;;;;;;;;;18.10;62.00;;;;;;4961091;28;19918;-82
2021/04/14 12:54:24;;;;;;;;;;;18.20;61.60;;;;;;4961439;28;19926;-82
2021/04/14 12:57:01;;;;;;;;;;;18.20;61.10;;;;;;4970449;28;19946;-82
2021/04/14 12:59:41;;;;;;;;;;;18.20;60.70;;;;;;4972015;28;19918;-82
2021/04/14 13:02:07;;;;;;;;;;;18.20;60.30;;;;;;4973897;28;19914;-83
2021/04/14 13:04:40;;;;;;;;;;;18.20;60.10;;;;;;4977493;28;19921;-83
2021/04/14 13:07:11;;;;;;;;;;;18.20;59.90;;;;;;4974251;28;19918;-82
2021/04/14 13:09:36;;;;;;;;;;;18.20;59.80;;;;;;4975590;28;20295;-82
2021/04/14 13:12:32;;;;;;;;;;;18.20;59.70;;;;;;4965030;28;19948;-83
2021/04/14 13:14:58;;;;;;;;;;;18.20;59.60;;;;;;4982780;28;20282;-81
2021/04/14 13:17:26;;;;;;;;;;;18.10;59.50;;;;;;4971900;28;19914;-82
2021/04/14 13:19:52;;;;;;;;;;;18.10;59.50;;;;;;4972408;28;19957;-83
2021/04/14 13:22:21;;;;;;;;;;;18.00;59.60;;;;;;4971006;28;20454;-81
2021/04/14 13:24:52;;;;;;;;;;;18.00;59.60;;;;;;4968848;28;19914;-83
2021/04/14 13:27:24;;;;;;;;;;;17.90;59.60;;;;;;4996734;28;19914;-82
2021/04/14 13:29:56;;;;;;;;;;;17.90;59.60;;;;;;4962432;28;19992;-82
2021/04/14 13:32:23;;;;;;;;;;;17.80;59.60;;;;;;4974684;28;20294;-82
2021/04/14 13:34:53;;;;;;;;;;;17.80;59.60;;;;;;4971241;28;19922;-81
2021/04/14 13:37:24;;;;;;;;;;;17.80;59.60;;;;;;4967644;28;19914;-81
2021/04/14 13:39:54;;;;;;;;;;;17.80;59.60;;;;;;4964520;28;19962;-81
2021/04/14 13:42:22;;;;;;;;;;;17.80;59.50;;;;;;4967016;28;19919;-81
2021/04/14 13:45:12;;;;;;;;;;;17.70;59.40;;;;;;4969524;28;19914;-82
2021/04/14 13:47:57;;;;;;;;;;;17.70;59.30;;;;;;4967175;28;19929;-82
2021/04/14 13:50:30;;;;;;;;;;;17.70;59.20;;;;;;4970954;28;19952;-82
2021/04/14 13:53:07;;;;;;;;;;;17.70;59.10;;;;;;4969626;28;19929;-81
2021/04/14 13:55:36;;;;;;;;;;;17.70;58.90;;;;;;5001289;28;20363;-82
2021/04/14 13:58:06;;;;;;;;;;;17.70;58.90;;;;;;4963861;28;19922;-89
2021/04/14 14:00:38;;;;;;;;;;;17.70;58.80;;;;;;4969238;28;19961;-89
2021/04/14 14:03:07;;;;;;;;;;;17.70;58.70;;;;;;4978279;28;19935;-89
2021/04/14 14:05:35;;;;;;;;;;;17.70;58.50;;;;;;5003003;28;20537;-89
2021/04/14 14:08:05;;;;;;;;;;;17.70;58.30;;;;;;4965443;28;19960;-89
2021/04/14 14:10:38;;;;;;;;;;;17.70;58.40;;;;;;4975038;28;19944;-88
2021/04/14 14:13:08;;;;;;;;;;;17.70;59.00;;;;;;4975135;28;19925;-89
2021/04/14 14:15:57;;;;;;;;;;;17.70;59.10;;;;;;5000935;28;19957;-85
2021/04/14 14:18:23;;;;;;;;;;;17.80;59.30;;;;;;4968986;28;19926;-88
2021/04/14 14:20:48;;;;;;;;;;;17.80;59.00;;;;;;4983593;28;20021;-89
2021/04/14 14:23:16;;;;;;;;;;;17.70;58.90;;;;;;4968035;28;20001;-89
2021/04/14 14:25:41;;;;;;;;;;;17.80;58.70;;;;;;4967083;28;19918;-90
2021/04/14 14:28:07;;;;;;;;;;;17.80;58.50;;;;;;4951676;28;19918;-88
2021/04/14 14:30:33;;;;;;;;;;;17.80;58.30;;;;;;4979116;28;20318;-89
2021/04/14 14:32:58;;;;;;;;;;;17.80;58.10;;;;;;4966796;28;19918;-88
2021/04/14 14:35:25;;;;;;;;;;;17.80;58.00;;;;;;4967155;28;19926;-86
2021/04/14 14:37:56;;;;;;;;;;;17.80;57.90;;;;;;4966195;28;19918;-86
2021/04/14 14:40:28;;;;;;;;;;;17.90;57.70;;;;;;5045395;28;19937;-87
2021/04/14 14:43:00;;;;;;;;;;;17.90;57.70;;;;;;4964368;28;19914;-86
2021/04/14 14:45:30;;;;;;;;;;;17.90;57.50;;;;;;4992294;28;19922;-85
2021/04/14 14:48:04;;;;;;;;;;;17.90;57.40;;;;;;4965175;28;19971;-87
2021/04/14 14:50:32;;;;;;;;;;;17.90;57.50;;;;;;4979851;28;19914;-86
2021/04/14 14:52:59;;;;;;;;;;;17.90;57.30;;;;;;4991205;28;19924;-85
2021/04/14 14:55:25;;;;;;;;;;;17.90;57.20;;;;;;4970787;28;20275;-87
2021/04/14 14:57:53;;;;;;;;;;;17.90;57.10;;;;;;4965444;28;19914;-89
2021/04/14 15:00:26;;;;;;;;;;;17.80;57.10;;;;;;4978059;28;19914;-88
2021/04/14 15:02:52;;;;;;;;;;;17.90;57.00;;;;;;4966840;28;20002;-88
2021/04/14 15:05:18;;;;;;;;;;;17.90;57.00;;;;;;4966098;28;19910;-89
2021/04/14 15:07:44;;;;;;;;;;;17.90;56.90;;;;;;4968936;28;19914;-87
2021/04/14 15:10:11;;;;;;;;;;;17.90;56.80;;;;;;4967926;28;20379;-89
2021/04/14 15:12:37;;;;;;;;;;;17.90;56.80;;;;;;4966172;28;19930;-89
2021/04/14 15:15:04;;;;;;;;;;;17.80;57.00;;;;;;4970776;28;20008;-88
2021/04/14 15:17:29;;;;;;;;;;;17.80;57.60;;;;;;4973829;28;19922;-88
2021/04/14 15:19:55;;;;;;;;;;;17.80;57.80;;;;;;4979689;28;19953;-86
2021/04/14 15:22:26;;;;;;;;;;;17.90;57.80;;;;;;4969426;28;19974;-87
2021/04/14 15:24:58;;;;;;;;;;;17.90;58.00;;;;;;4969941;28;20366;-85
2021/04/14 15:27:27;;;;;;;;;;;17.90;57.60;;;;;;4969341;28;19921;-85
2021/04/14 15:29:53;;;;;;;;;;;17.90;57.60;;;;;;4978650;28;20321;-84
2021/04/14 15:32:19;;;;;;;;;;;17.80;57.70;;;;;;5001224;28;19930;-85
2021/04/14 15:34:47;;;;;;;;;;;17.80;57.80;;;;;;4996214;28;19940;-85
2021/04/14 15:37:12;;;;;;;;;;;17.80;57.90;;;;;;4971452;28;20354;-86
2021/04/14 15:39:39;;;;;;;;;;;17.80;57.90;;;;;;4967484;28;19917;-85
2021/04/14 15:42:05;;;;;;;;;;;17.80;58.00;;;;;;4969527;28;19961;-85
2021/04/14 15:44:31;;;;;;;;;;;17.80;58.00;;;;;;4970679;28;20001;-86
2021/04/14 15:46:56;;;;;;;;;;;17.70;58.10;;;;;;4970386;28;20044;-85
2021/04/14 15:49:22;;;;;;;;;;;17.70;58.10;;;;;;4969502;28;19960;-86
2021/04/14 15:51:48;;;;;;;;;;;17.80;58.10;;;;;;5001386;28;19922;-85
2021/04/14 15:54:13;;;;;;;;;;;17.70;58.10;;;;;;4991464;28;20010;-84
2021/04/14 15:56:39;;;;;;;;;;;17.70;58.10;;;;;;4963852;28;19914;-85